sensor_id;sensor_type;location;lat;lon;timestamp;pressure;altitude;pressure_sealevel;temperature;humidity
8501;BME280;4288;48.484;10.024;2022-12-10T00:02:26;94312.16;;;-0.10;nan
8501;BME280;4288;48.484;10.024;2022-12-10T00:04:55;94312.91;;;-0.09;nan
8501;BME280;4288;48.484;10.024;2022-12-10T00:07:22;94311.41;;;-0.10;nan
8501;BME280;4288;48.484;10.024;2022-12-10T00:09:49;94311.31;;;-0.14;nan
8501;BME280;4288;48.484;10.024;2022-12-10T00:12:17;94302.00;;;-0.11;nan
8501;BME280;4288;48.484;10.024;2022-12-10T00:14:45;94304.69;;;-0.08;nan
8501;BME280;4288;48.484;10.024;2022-12-10T00:17:12;94315.63;;;-0.06;nan
8501;BME280;4288;48.484;10.024;2022-12-10T00:19:39;94315.31;;;-0.04;nan
8501;BME280;4288;48.484;10.024;2022-12-10T00:22:06;94309.22;;;-0.08;nan
8501;BME280;4288;48.484;10.024;2022-12-10T00:24:33;94305.81;;;-0.09;nan
8501;BME280;4288;48.484;10.024;2022-12-10T00:27:01;94312.56;;;-0.08;nan
8501;BME280;4288;48.484;10.024;2022-12-10T00:29:28;94307.41;;;-0.04;nan
8501;BME280;4288;48.484;10.024;2022-12-10T00:31:56;94314.94;;;-0.03;nan
8501;BME280;4288;48.484;10.024;2022-12-10T00:34:23;94309.28;;;-0.05;nan
8501;BME280;4288;48.484;10.024;2022-12-10T00:36:50;94306.66;;;-0.05;nan
8501;BME280;4288;48.484;10.024;2022-12-10T00:39:19;94308.09;;;-0.07;nan
8501;BME280;4288;48.484;10.024;2022-12-10T00:41:47;94303.19;;;-0.09;nan
8501;BME280;4288;48.484;10.024;2022-12-10T00:44:15;94315.88;;;-0.11;nan
8501;BME280;4288;48.484;10.024;2022-12-10T00:46:42;94312.84;;;-0.13;nan
8501;BME280;4288;48.484;10.024;2022-12-10T00:49:11;94312.16;;;-0.10;nan
8501;BME280;4288;48.484;10.024;2022-12-10T00:51:38;94315.19;;;-0.08;nan
8501;BME280;4288;48.484;10.024;2022-12-10T00:54:06;94312.91;;;-0.09;nan
8501;BME280;4288;48.484;10.024;2022-12-10T00:56:34;94312.56;;;-0.08;nan
8501;BME280;4288;48.484;10.024;2022-12-10T00:59:02;94316.56;;;-0.14;nan
8501;BME280;4288;48.484;10.024;2022-12-10T01:01:31;94316.13;;;-0.16;nan
8501;BME280;4288;48.484;10.024;2022-12-10T01:04:04;94314.69;;;-0.13;nan
8501;BME280;4288;48.484;10.024;2022-12-10T01:06:35;94312.44;;;-0.15;nan
8501;BME280;4288;48.484;10.024;2022-12-10T01:09:05;94317.25;;;-0.17;nan
8501;BME280;4288;48.484;10.024;2022-12-10T01:11:36;94320.66;;;-0.16;nan
8501;BME280;4288;48.484;10.024;2022-12-10T01:14:05;94324.44;;;-0.14;nan
8501;BME280;4288;48.484;10.024;2022-12-10T01:16:32;94311.72;;;-0.12;nan
8501;BME280;4288;48.484;10.024;2022-12-10T01:18:59;94321.91;;;-0.10;nan
8501;BME280;4288;48.484;10.024;2022-12-10T01:21:28;94322.56;;;-0.13;nan
8501;BME280;4288;48.484;10.024;2022-12-10T01:23:58;94328.88;;;-0.18;nan
8501;BME280;4288;48.484;10.024;2022-12-10T01:26:28;94335.28;;;-0.15;nan
8501;BME280;4288;48.484;10.024;2022-12-10T01:28:56;94339.03;;;-0.16;nan
8501;BME280;4288;48.484;10.024;2022-12-10T01:31:26;94343.50;;;-0.17;nan
8501;BME280;4288;48.484;10.024;2022-12-10T01:33:54;94335.69;;;-0.13;nan
8501;BME280;4288;48.484;10.024;2022-12-10T01:36:24;94331.66;;;-0.11;nan
8501;BME280;4288;48.484;10.024;2022-12-10T01:38:52;94327.59;;;-0.08;nan
8501;BME280;4288;48.484;10.024;2022-12-10T01:41:23;94329.38;;;-0.12;nan
8501;BME280;4288;48.484;10.024;2022-12-10T01:43:57;94332.72;;;-0.12;nan
8501;BME280;4288;48.484;10.024;2022-12-10T01:46:27;94335.28;;;-0.15;nan
8501;BME280;4288;48.484;10.024;2022-12-10T01:48:55;94327.69;;;-0.20;nan
8501;BME280;4288;48.484;10.024;2022-12-10T01:51:30;94327.31;;;-0.19;nan
8501;BME280;4288;48.484;10.024;2022-12-10T01:53:58;94337.13;;;-0.16;nan
8501;BME280;4288;48.484;10.024;2022-12-10T01:56:28;94330.44;;;-0.13;nan
8501;BME280;4288;48.484;10.024;2022-12-10T01:58:56;94332.22;;;-0.17;nan
8501;BME280;4288;48.484;10.024;2022-12-10T02:01:31;94339.75;;;-0.16;nan
8501;BME280;4288;48.484;10.024;2022-12-10T02:04:12;94343.06;;;-0.19;nan
8501;BME280;4288;48.484;10.024;2022-12-10T02:06:53;94346.19;;;-0.13;nan
8501;BME280;4288;48.484;10.024;2022-12-10T02:09:28;94336.81;;;-0.14;nan
8501;BME280;4288;48.484;10.024;2022-12-10T02:12:09;94339.03;;;-0.16;nan
8501;BME280;4288;48.484;10.024;2022-12-10T02:14:49;94335.19;;;-0.19;nan
8501;BME280;4288;48.484;10.024;2022-12-10T02:17:23;94338.94;;;-0.20;nan
8501;BME280;4288;48.484;10.024;2022-12-10T02:20:08;94335.19;;;-0.19;nan
8501;BME280;4288;48.484;10.024;2022-12-10T02:22:48;94342.22;;;-0.23;nan
8501;BME280;4288;48.484;10.024;2022-12-10T02:25:21;94349.09;;;-0.18;nan
8501;BME280;4288;48.484;10.024;2022-12-10T02:28:01;94344.19;;;-0.20;nan
8501;BME280;4288;48.484;10.024;2022-12-10T02:30:31;94338.09;;;-0.24;nan
8501;BME280;4288;48.484;10.024;2022-12-10T02:33:01;94333.69;;;-0.20;nan
8501;BME280;4288;48.484;10.024;2022-12-10T02:35:33;94336.41;;;-0.16;nan
8501;BME280;4288;48.484;10.024;2022-12-10T02:38:07;94345.34;;;-0.17;nan
8501;BME280;4288;48.484;10.024;2022-12-10T02:40:37;94341.56;;;-0.20;nan
8501;BME280;4288;48.484;10.024;2022-12-10T02:43:06;94332.56;;;-0.19;nan
8501;BME280;4288;48.484;10.024;2022-12-10T02:45:35;94340.88;;;-0.17;nan
8501;BME280;4288;48.484;10.024;2022-12-10T02:48:05;94337.13;;;-0.16;nan
8501;BME280;4288;48.484;10.024;2022-12-10T02:50:33;94335.63;;;-0.17;nan
8501;BME280;4288;48.484;10.024;2022-12-10T02:53:00;94335.13;;;-0.22;nan
8501;BME280;4288;48.484;10.024;2022-12-10T02:55:30;94338.94;;;-0.20;nan
8501;BME280;4288;48.484;10.024;2022-12-10T02:58:14;94336.75;;;-0.18;nan
8501;BME280;4288;48.484;10.024;2022-12-10T03:00:54;94333.28;;;-0.22;nan
8501;BME280;4288;48.484;10.024;2022-12-10T03:03:34;94335.19;;;-0.19;nan
8501;BME280;4288;48.484;10.024;2022-12-10T03:06:11;94338.19;;;-0.20;nan
8501;BME280;4288;48.484;10.024;2022-12-10T03:08:45;94317.94;;;-0.20;nan
8501;BME280;4288;48.484;10.024;2022-12-10T03:11:16;94315.22;;;-0.23;nan
8501;BME280;4288;48.484;10.024;2022-12-10T03:13:54;94311.75;;;-0.27;nan
8501;BME280;4288;48.484;10.024;2022-12-10T03:16:24;94313.72;;;-0.24;nan
8501;BME280;4288;48.484;10.024;2022-12-10T03:18:56;94311.09;;;-0.24;nan
8501;BME280;4288;48.484;10.024;2022-12-10T03:21:27;94310.31;;;-0.25;nan
8501;BME280;4288;48.484;10.024;2022-12-10T03:23:56;94317.00;;;-0.27;nan
8501;BME280;4288;48.484;10.024;2022-12-10T03:26:24;94310.59;;;-0.30;nan
8501;BME280;4288;48.484;10.024;2022-12-10T03:28:55;94313.72;;;-0.24;nan
8501;BME280;4288;48.484;10.024;2022-12-10T03:31:26;94305.13;;;-0.21;nan
8501;BME280;4288;48.484;10.024;2022-12-10T03:33:54;94300.16;;;-0.26;nan
8501;BME280;4288;48.484;10.024;2022-12-10T03:36:23;94304.41;;;-0.22;nan
8501;BME280;4288;48.484;10.024;2022-12-10T03:38:51;94316.41;;;-0.21;nan
8501;BME280;4288;48.484;10.024;2022-12-10T03:41:19;94336.56;;;-0.25;nan
8501;BME280;4288;48.484;10.024;2022-12-10T03:43:57;94333.16;;;-0.25;nan
8501;BME280;4288;48.484;10.024;2022-12-10T03:46:28;94335.97;;;-0.34;nan
8501;BME280;4288;48.484;10.024;2022-12-10T03:48:57;94330.47;;;-0.29;nan
8501;BME280;4288;48.484;10.024;2022-12-10T03:51:24;94337.69;;;-0.26;nan
8501;BME280;4288;48.484;10.024;2022-12-10T03:53:51;94336.91;;;-0.26;nan
8501;BME280;4288;48.484;10.024;2022-12-10T03:56:19;94334.94;;;-0.29;nan
8501;BME280;4288;48.484;10.024;2022-12-10T03:58:47;94330.88;;;-0.27;nan
8501;BME280;4288;48.484;10.024;2022-12-10T04:01:15;94321.94;;;-0.26;nan
8501;BME280;4288;48.484;10.024;2022-12-10T04:03:44;94326.13;;;-0.21;nan
8501;BME280;4288;48.484;10.024;2022-12-10T04:06:14;94321.50;;;-0.28;nan
8501;BME280;4288;48.484;10.024;2022-12-10T04:08:41;94311.09;;;-0.24;nan
8501;BME280;4288;48.484;10.024;2022-12-10T04:11:10;94315.97;;;-0.23;nan
8501;BME280;4288;48.484;10.024;2022-12-10T04:13:39;94312.50;;;-0.27;nan
8501;BME280;4288;48.484;10.024;2022-12-10T04:16:25;94310.25;;;-0.28;nan
8501;BME280;4288;48.484;10.024;2022-12-10T04:18:58;94312.50;;;-0.27;nan
8501;BME280;4288;48.484;10.024;2022-12-10T04:21:27;94315.56;;;-0.25;nan
8501;BME280;4288;48.484;10.024;2022-12-10T04:24:13;94313.72;;;-0.24;nan
8501;BME280;4288;48.484;10.024;2022-12-10T04:27:01;94318.88;;;-0.28;nan
8501;BME280;4288;48.484;10.024;2022-12-10T04:29:30;94316.69;;;-0.26;nan
8501;BME280;4288;48.484;10.024;2022-12-10T04:31:58;94322.94;;;-0.30;nan
8501;BME280;4288;48.484;10.024;2022-12-10T04:34:26;94315.50;;;-0.28;nan
8501;BME280;4288;48.484;10.024;2022-12-10T04:36:54;94315.41;;;-0.32;nan
8501;BME280;4288;48.484;10.024;2022-12-10T04:39:21;94317.34;;;-0.29;nan
8501;BME280;4288;48.484;10.024;2022-12-10T04:41:49;94322.34;;;-0.24;nan
8501;BME280;4288;48.484;10.024;2022-12-10T04:44:17;94322.66;;;-0.25;nan
8501;BME280;4288;48.484;10.024;2022-12-10T04:46:45;94320.03;;;-0.25;nan
8501;BME280;4288;48.484;10.024;2022-12-10T04:49:12;94328.69;;;-0.25;nan
8501;BME280;4288;48.484;10.024;2022-12-10T04:51:41;94338.41;;;-0.25;nan
8501;BME280;4288;48.484;10.024;2022-12-10T04:54:09;94336.13;;;-0.27;nan
8501;BME280;4288;48.484;10.024;2022-12-10T04:56:37;94328.59;;;-0.28;nan
8501;BME280;4288;48.484;10.024;2022-12-10T04:59:05;94332.00;;;-0.28;nan
8501;BME280;4288;48.484;10.024;2022-12-10T05:01:33;94338.09;;;-0.24;nan
8501;BME280;4288;48.484;10.024;2022-12-10T05:04:02;94341.72;;;-0.28;nan
8501;BME280;4288;48.484;10.024;2022-12-10T05:06:30;94338.09;;;-0.24;nan
8501;BME280;4288;48.484;10.024;2022-12-10T05:08:59;94331.56;;;-0.30;nan
8501;BME280;4288;48.484;10.024;2022-12-10T05:11:28;94336.06;;;-0.30;nan
8501;BME280;4288;48.484;10.024;2022-12-10T05:13:57;94337.06;;;-0.35;nan
8501;BME280;4288;48.484;10.024;2022-12-10T05:16:26;94346.91;;;-0.32;nan
8501;BME280;4288;48.484;10.024;2022-12-10T05:18:55;94339.53;;;-0.26;nan
8501;BME280;4288;48.484;10.024;2022-12-10T05:21:24;94350.03;;;-0.26;nan
8501;BME280;4288;48.484;10.024;2022-12-10T05:24:14;94349.94;;;-0.30;nan
8501;BME280;4288;48.484;10.024;2022-12-10T05:26:40;94348.69;;;-0.36;nan
8501;BME280;4288;48.484;10.024;2022-12-10T05:29:07;94340.88;;;-0.32;nan
8501;BME280;4288;48.484;10.024;2022-12-10T05:31:35;94353.31;;;-0.29;nan
8501;BME280;4288;48.484;10.024;2022-12-10T05:34:03;94340.97;;;-0.29;nan
8501;BME280;4288;48.484;10.024;2022-12-10T05:36:31;94344.63;;;-0.33;nan
8501;BME280;4288;48.484;10.024;2022-12-10T05:38:59;94346.91;;;-0.32;nan
8501;BME280;4288;48.484;10.024;2022-12-10T05:41:30;94357.63;;;-0.37;nan
8501;BME280;4288;48.484;10.024;2022-12-10T05:43:58;94357.97;;;-0.38;nan
8501;BME280;4288;48.484;10.024;2022-12-10T05:46:29;94360.69;;;-0.35;nan
8501;BME280;4288;48.484;10.024;2022-12-10T05:48:57;94362.16;;;-0.37;nan
8501;BME280;4288;48.484;10.024;2022-12-10T05:51:29;94359.19;;;-0.36;nan
8501;BME280;4288;48.484;10.024;2022-12-10T05:53:58;94364.84;;;-0.34;nan
8501;BME280;4288;48.484;10.024;2022-12-10T05:56:27;94361.09;;;-0.33;nan
8501;BME280;4288;48.484;10.024;2022-12-10T05:58:58;94361.53;;;-0.31;nan
8501;BME280;4288;48.484;10.024;2022-12-10T06:01:29;94360.75;;;-0.31;nan
8501;BME280;4288;48.484;10.024;2022-12-10T06:03:57;94365.69;;;-0.30;nan
8501;BME280;4288;48.484;10.024;2022-12-10T06:06:28;94355.94;;;-0.29;nan
8501;BME280;4288;48.484;10.024;2022-12-10T06:08:56;94359.25;;;-0.32;nan
8501;BME280;4288;48.484;10.024;2022-12-10T06:11:24;94351.72;;;-0.34;nan
8501;BME280;4288;48.484;10.024;2022-12-10T06:13:53;94355.63;;;-0.28;nan
8501;BME280;4288;48.484;10.024;2022-12-10T06:16:21;94368.41;;;-0.26;nan
8501;BME280;4288;48.484;10.024;2022-12-10T06:18:49;94359.75;;;-0.27;nan
8501;BME280;4288;48.484;10.024;2022-12-10T06:21:17;94364.59;;;-0.29;nan
8501;BME280;4288;48.484;10.024;2022-12-10T06:23:46;94360.88;;;-0.28;nan
8501;BME280;4288;48.484;10.024;2022-12-10T06:26:16;94368.31;;;-0.30;nan
8501;BME280;4288;48.484;10.024;2022-12-10T06:28:45;94373.16;;;-0.32;nan
8501;BME280;4288;48.484;10.024;2022-12-10T06:31:14;94367.81;;;-0.35;nan
8501;BME280;4288;48.484;10.024;2022-12-10T06:33:42;94372.31;;;-0.36;nan
8501;BME280;4288;48.484;10.024;2022-12-10T06:36:11;94365.94;;;-0.35;nan
8501;BME280;4288;48.484;10.024;2022-12-10T06:38:40;94370.00;;;-0.37;nan
8501;BME280;4288;48.484;10.024;2022-12-10T06:41:10;94376.00;;;-0.37;nan
8501;BME280;4288;48.484;10.024;2022-12-10T06:43:38;94385.75;;;-0.37;nan
8501;BME280;4288;48.484;10.024;2022-12-10T06:46:06;94383.44;;;-0.39;nan
8501;BME280;4288;48.484;10.024;2022-12-10T06:48:35;94381.44;;;-0.30;nan
8501;BME280;4288;48.484;10.024;2022-12-10T06:51:04;94388.13;;;-0.32;nan
8501;BME280;4288;48.484;10.024;2022-12-10T06:53:32;94398.47;;;-0.39;nan
8501;BME280;4288;48.484;10.024;2022-12-10T06:56:01;94400.06;;;-0.35;nan
8501;BME280;4288;48.484;10.024;2022-12-10T06:58:29;94392.59;;;-0.33;nan
8501;BME280;4288;48.484;10.024;2022-12-10T07:01:03;94395.31;;;-0.29;nan
8501;BME280;4288;48.484;10.024;2022-12-10T07:03:30;94399.47;;;-0.28;nan
8501;BME280;4288;48.484;10.024;2022-12-10T07:05:59;94395.84;;;-0.24;nan
8501;BME280;4288;48.484;10.024;2022-12-10T07:08:27;94393.03;;;-0.31;nan
8501;BME280;4288;48.484;10.024;2022-12-10T07:10:55;94398.63;;;-0.32;nan
8501;BME280;4288;48.484;10.024;2022-12-10T07:13:22;94399.38;;;-0.32;nan
8501;BME280;4288;48.484;10.024;2022-12-10T07:15:50;94390.47;;;-0.27;nan
8501;BME280;4288;48.484;10.024;2022-12-10T07:18:17;94405.06;;;-0.30;nan
8501;BME280;4288;48.484;10.024;2022-12-10T07:20:44;94408.78;;;-0.31;nan
8501;BME280;4288;48.484;10.024;2022-12-10T07:23:12;94393.22;;;-0.24;nan
8501;BME280;4288;48.484;10.024;2022-12-10T07:25:39;94392.44;;;-0.24;nan
8501;BME280;4288;48.484;10.024;2022-12-10T07:28:07;94400.41;;;-0.21;nan
8501;BME280;4288;48.484;10.024;2022-12-10T07:30:34;94403.78;;;-0.20;nan
8501;BME280;4288;48.484;10.024;2022-12-10T07:33:01;94406.94;;;-0.15;nan
8501;BME280;4288;48.484;10.024;2022-12-10T07:35:28;94413.94;;;-0.19;nan
8501;BME280;4288;48.484;10.024;2022-12-10T07:37:55;94408.78;;;-0.15;nan
8501;BME280;4288;48.484;10.024;2022-12-10T07:40:24;94409.97;;;-0.13;nan
8501;BME280;4288;48.484;10.024;2022-12-10T07:42:51;94418.63;;;-0.12;nan
8501;BME280;4288;48.484;10.024;2022-12-10T07:45:18;94412.59;;;-0.13;nan
8501;BME280;4288;48.484;10.024;2022-12-10T07:47:45;94416.94;;;-0.05;nan
8501;BME280;4288;48.484;10.024;2022-12-10T07:50:12;94416.22;;;-0.02;nan
8501;BME280;4288;48.484;10.024;2022-12-10T07:52:39;94418.19;;;0.02;nan
8501;BME280;4288;48.484;10.024;2022-12-10T07:55:07;94429.13;;;0.04;nan
8501;BME280;4288;48.484;10.024;2022-12-10T07:57:36;94418.53;;;0.00;nan
8501;BME280;4288;48.484;10.024;2022-12-10T08:00:04;94409.72;;;0.08;nan
8501;BME280;4288;48.484;10.024;2022-12-10T08:02:31;94428.94;;;0.12;nan
8501;BME280;4288;48.484;10.024;2022-12-10T08:04:58;94419.28;;;0.16;nan
8501;BME280;4288;48.484;10.024;2022-12-10T08:07:25;94423.94;;;0.23;nan
8501;BME280;4288;48.484;10.024;2022-12-10T08:09:52;94416.47;;;0.25;nan
8501;BME280;4288;48.484;10.024;2022-12-10T08:12:19;94423.34;;;0.29;nan
8501;BME280;4288;48.484;10.024;2022-12-10T08:14:48;94429.19;;;0.23;nan
8501;BME280;4288;48.484;10.024;2022-12-10T08:17:15;94427.00;;;0.25;nan
8501;BME280;4288;48.484;10.024;2022-12-10T08:19:42;94428.44;;;0.22;nan
8501;BME280;4288;48.484;10.024;2022-12-10T08:22:09;94434.44;;;0.23;nan
8501;BME280;4288;48.484;10.024;2022-12-10T08:24:36;94427.84;;;0.29;nan
8501;BME280;4288;48.484;10.024;2022-12-10T08:27:03;94429.78;;;0.32;nan
8501;BME280;4288;48.484;10.024;2022-12-10T08:29:30;94414.94;;;0.39;nan
8501;BME280;4288;48.484;10.024;2022-12-10T08:31:59;94419.44;;;0.39;nan
8501;BME280;4288;48.484;10.024;2022-12-10T08:34:26;94420.94;;;0.40;nan
8501;BME280;4288;48.484;10.024;2022-12-10T08:36:53;94428.75;;;0.36;nan
8501;BME280;4288;48.484;10.024;2022-12-10T08:39:20;94432.66;;;0.42;nan
8501;BME280;4288;48.484;10.024;2022-12-10T08:41:47;94431.88;;;0.42;nan
8501;BME280;4288;48.484;10.024;2022-12-10T08:44:15;94439.63;;;0.35;nan
8501;BME280;4288;48.484;10.024;2022-12-10T08:46:42;94447.91;;;0.37;nan
8501;BME280;4288;48.484;10.024;2022-12-10T08:49:12;94447.00;;;0.29;nan
8501;BME280;4288;48.484;10.024;2022-12-10T08:51:39;94446.03;;;0.22;nan
8501;BME280;4288;48.484;10.024;2022-12-10T08:54:06;94436.81;;;0.28;nan
8501;BME280;4288;48.484;10.024;2022-12-10T08:56:33;94434.84;;;0.40;nan
8501;BME280;4288;48.484;10.024;2022-12-10T08:59:01;94444.66;;;0.43;nan
8501;BME280;4288;48.484;10.024;2022-12-10T09:01:28;94452.97;;;0.45;nan
8501;BME280;4288;48.484;10.024;2022-12-10T09:03:56;94460.94;;;0.33;nan
8501;BME280;4288;48.484;10.024;2022-12-10T09:06:24;94461.66;;;0.30;nan
8501;BME280;4288;48.484;10.024;2022-12-10T09:08:52;94466.97;;;0.34;nan
8501;BME280;4288;48.484;10.024;2022-12-10T09:11:23;94472.66;;;0.36;nan
8501;BME280;4288;48.484;10.024;2022-12-10T09:13:51;94470.03;;;0.36;nan
8501;BME280;4288;48.484;10.024;2022-12-10T09:16:18;94466.19;;;0.49;nan
8501;BME280;4288;48.484;10.024;2022-12-10T09:18:45;94462.44;;;0.65;nan
8501;BME280;4288;48.484;10.024;2022-12-10T09:21:15;94461.66;;;0.80;nan
8501;BME280;4288;48.484;10.024;2022-12-10T09:23:44;94452.47;;;0.90;nan
8501;BME280;4288;48.484;10.024;2022-12-10T09:26:15;94459.81;;;1.00;nan
8501;BME280;4288;48.484;10.024;2022-12-10T09:28:43;94465.25;;;1.07;nan
8501;BME280;4288;48.484;10.024;2022-12-10T09:31:11;94461.13;;;1.10;nan
8501;BME280;4288;48.484;10.024;2022-12-10T09:33:40;94460.94;;;1.18;nan
8501;BME280;4288;48.484;10.024;2022-12-10T09:36:10;94464.88;;;1.09;nan
8501;BME280;4288;48.484;10.024;2022-12-10T09:38:40;94461.91;;;1.10;nan
8501;BME280;4288;48.484;10.024;2022-12-10T09:41:36;94467.78;;;1.04;nan
8501;BME280;4288;48.484;10.024;2022-12-10T09:44:12;94470.81;;;1.06;nan
8501;BME280;4288;48.484;10.024;2022-12-10T09:46:51;94466.63;;;1.01;nan
8501;BME280;4288;48.484;10.024;2022-12-10T09:49:30;94469.97;;;1.02;nan
8501;BME280;4288;48.484;10.024;2022-12-10T09:52:04;94462.44;;;1.00;nan
8501;BME280;4288;48.484;10.024;2022-12-10T09:54:35;94464.81;;;1.05;nan
8501;BME280;4288;48.484;10.024;2022-12-10T09:57:10;94458.31;;;0.99;nan
8501;BME280;4288;48.484;10.024;2022-12-10T09:59:48;94463.59;;;0.83;nan
8501;BME280;4288;48.484;10.024;2022-12-10T10:02:22;94454.41;;;0.93;nan
8501;BME280;4288;48.484;10.024;2022-12-10T10:04:54;94457.13;;;0.97;nan
8501;BME280;4288;48.484;10.024;2022-12-10T10:07:26;94455.03;;;1.06;nan
8501;BME280;4288;48.484;10.024;2022-12-10T10:09:59;94457.22;;;0.84;nan
8501;BME280;4288;48.484;10.024;2022-12-10T10:12:29;94462.84;;;0.83;nan
8501;BME280;4288;48.484;10.024;2022-12-10T10:14:57;94467.41;;;0.86;nan
8501;BME280;4288;48.484;10.024;2022-12-10T10:17:31;94469.59;;;0.84;nan
8501;BME280;4288;48.484;10.024;2022-12-10T10:20:00;94463.31;;;0.88;nan
8501;BME280;4288;48.484;10.024;2022-12-10T10:22:27;94461.88;;;0.91;nan
8501;BME280;4288;48.484;10.024;2022-12-10T10:24:56;94467.50;;;0.89;nan
8501;BME280;4288;48.484;10.024;2022-12-10T10:27:30;94473.59;;;0.94;nan
8501;BME280;4288;48.484;10.024;2022-12-10T10:30:02;94474.75;;;0.96;nan
8501;BME280;4288;48.484;10.024;2022-12-10T10:32:48;94472.16;;;0.80;nan
8501;BME280;4288;48.484;10.024;2022-12-10T10:35:27;94471.94;;;0.70;nan
8501;BME280;4288;48.484;10.024;2022-12-10T10:37:59;94469.19;;;0.82;nan
8501;BME280;4288;48.484;10.024;2022-12-10T10:40:32;94467.94;;;0.76;nan
8501;BME280;4288;48.484;10.024;2022-12-10T10:43:01;94477.94;;;0.70;nan
8501;BME280;4288;48.484;10.024;2022-12-10T10:45:39;94474.72;;;0.77;nan
8501;BME280;4288;48.484;10.024;2022-12-10T10:48:13;94474.25;;;0.56;nan
8501;BME280;4288;48.484;10.024;2022-12-10T10:50:44;94476.97;;;0.59;nan
8501;BME280;4288;48.484;10.024;2022-12-10T10:53:32;94472.28;;;0.53;nan
8501;BME280;4288;48.484;10.024;2022-12-10T10:56:07;94465.94;;;0.54;nan
8501;BME280;4288;48.484;10.024;2022-12-10T10:58:50;94469.75;;;0.72;nan
8501;BME280;4288;48.484;10.024;2022-12-10T11:01:18;94460.81;;;0.76;nan
8501;BME280;4288;48.484;10.024;2022-12-10T11:03:49;94464.81;;;0.70;nan
8501;BME280;4288;48.484;10.024;2022-12-10T11:06:17;94462.94;;;0.71;nan
8501;BME280;4288;48.484;10.024;2022-12-10T11:08:46;94468.44;;;0.81;nan
8501;BME280;4288;48.484;10.024;2022-12-10T11:11:19;94464.25;;;0.61;nan
8501;BME280;4288;48.484;10.024;2022-12-10T11:13:49;94457.69;;;0.71;nan
8501;BME280;4288;48.484;10.024;2022-12-10T11:16:19;94460.06;;;0.76;nan
8501;BME280;4288;48.484;10.024;2022-12-10T11:18:57;94465.22;;;0.72;nan
8501;BME280;4288;48.484;10.024;2022-12-10T11:21:29;94464.28;;;0.80;nan
8501;BME280;4288;48.484;10.024;2022-12-10T11:23:58;94471.47;;;0.64;nan
8501;BME280;4288;48.484;10.024;2022-12-10T11:26:44;94466.94;;;0.65;nan
8501;BME280;4288;48.484;10.024;2022-12-10T11:29:29;94473.47;;;0.55;nan
8501;BME280;4288;48.484;10.024;2022-12-10T11:32:13;94482.50;;;0.54;nan
8501;BME280;4288;48.484;10.024;2022-12-10T11:34:55;94483.84;;;0.48;nan
8501;BME280;4288;48.484;10.024;2022-12-10T11:37:32;94481.72;;;0.38;nan
8501;BME280;4288;48.484;10.024;2022-12-10T11:40:15;94481.47;;;0.43;nan
8501;BME280;4288;48.484;10.024;2022-12-10T11:43:01;94466.53;;;0.47;nan
8501;BME280;4288;48.484;10.024;2022-12-10T11:45:46;94481.38;;;0.40;nan
8501;BME280;4288;48.484;10.024;2022-12-10T11:48:29;94475.78;;;0.41;nan
8501;BME280;4288;48.484;10.024;2022-12-10T11:51:03;94489.09;;;0.48;nan
8501;BME280;4288;48.484;10.024;2022-12-10T11:53:54;94489.03;;;0.45;nan
8501;BME280;4288;48.484;10.024;2022-12-10T11:56:31;94490.53;;;0.46;nan
8501;BME280;4288;48.484;10.024;2022-12-10T11:59:08;94492.16;;;0.50;nan
8501;BME280;4288;48.484;10.024;2022-12-10T12:01:55;94492.38;;;0.61;nan
8501;BME280;4288;48.484;10.024;2022-12-10T12:04:33;94489.59;;;0.69;nan
8501;BME280;4288;48.484;10.024;2022-12-10T12:07:32;94499.75;;;0.71;nan
8501;BME280;4288;48.484;10.024;2022-12-10T12:10:52;94501.19;;;0.68;nan
8501;BME280;4288;48.484;10.024;2022-12-10T12:13:24;94496.78;;;0.57;nan
8501;BME280;4288;48.484;10.024;2022-12-10T12:15:57;94493.47;;;0.75;nan
8501;BME280;4288;48.484;10.024;2022-12-10T12:18:36;94493.81;;;0.74;nan
8501;BME280;4288;48.484;10.024;2022-12-10T12:21:10;94503.47;;;0.85;nan
8501;BME280;4288;48.484;10.024;2022-12-10T12:23:47;94502.59;;;0.97;nan
8501;BME280;4288;48.484;10.024;2022-12-10T12:26:24;94500.47;;;1.03;nan
8501;BME280;4288;48.484;10.024;2022-12-10T12:28:59;94497.66;;;1.11;nan
8501;BME280;4288;48.484;10.024;2022-12-10T12:31:34;94503.09;;;1.22;nan
8501;BME280;4288;48.484;10.024;2022-12-10T12:34:13;94505.66;;;1.18;nan
8501;BME280;4288;48.484;10.024;2022-12-10T12:36:44;94516.44;;;1.13;nan
8501;BME280;4288;48.484;10.024;2022-12-10T12:39:20;94521.91;;;1.05;nan
8501;BME280;4288;48.484;10.024;2022-12-10T12:41:57;94526.47;;;1.08;nan
8501;BME280;4288;48.484;10.024;2022-12-10T12:44:32;94518.69;;;1.11;nan
8501;BME280;4288;48.484;10.024;2022-12-10T12:47:13;94533.31;;;0.93;nan
8501;BME280;4288;48.484;10.024;2022-12-10T12:49:44;94530.81;;;1.00;nan
8501;BME280;4288;48.484;10.024;2022-12-10T12:52:26;94531.91;;;0.80;nan
8501;BME280;4288;48.484;10.024;2022-12-10T12:55:03;94538.25;;;0.79;nan
8501;BME280;4288;48.484;10.024;2022-12-10T12:57:42;94536.53;;;0.86;nan
8501;BME280;4288;48.484;10.024;2022-12-10T13:00:14;94532.88;;;0.91;nan
8501;BME280;4288;48.484;10.024;2022-12-10T13:02:56;94540.47;;;0.77;nan
8501;BME280;4288;48.484;10.024;2022-12-10T13:05:30;94537.56;;;0.66;nan
8501;BME280;4288;48.484;10.024;2022-12-10T13:08:25;94544.88;;;0.73;nan
8501;BME280;4288;48.484;10.024;2022-12-10T13:10:59;94548.41;;;0.80;nan
8501;BME280;4288;48.484;10.024;2022-12-10T13:13:31;94549.28;;;0.69;nan
8501;BME280;4288;48.484;10.024;2022-12-10T13:19:31;94540.31;;;0.54;nan
8501;BME280;4288;48.484;10.024;2022-12-10T13:22:07;94549.53;;;0.33;nan
8501;BME280;4288;48.484;10.024;2022-12-10T13:25:05;94547.91;;;0.13;nan
8501;BME280;4288;48.484;10.024;2022-12-10T13:27:35;94552.28;;;0.09;nan
8501;BME280;4288;48.484;10.024;2022-12-10T13:30:27;94555.69;;;0.09;nan
8501;BME280;4288;48.484;10.024;2022-12-10T13:33:15;94570.28;;;0.38;nan
8501;BME280;4288;48.484;10.024;2022-12-10T13:35:55;94576.16;;;0.31;nan
8501;BME280;4288;48.484;10.024;2022-12-10T13:38:26;94566.22;;;0.25;nan
8501;BME280;4288;48.484;10.024;2022-12-10T13:41:02;94573.94;;;0.33;nan
8501;BME280;4288;48.484;10.024;2022-12-10T13:43:56;94576.81;;;0.28;nan
8501;BME280;4288;48.484;10.024;2022-12-10T13:46:58;94579.41;;;0.13;nan
8501;BME280;4288;48.484;10.024;2022-12-10T13:49:27;94579.59;;;0.20;nan
8501;BME280;4288;48.484;10.024;2022-12-10T13:51:59;94585.97;;;0.19;nan
8501;BME280;4288;48.484;10.024;2022-12-10T13:55:19;94587.91;;;0.22;nan
8501;BME280;4288;48.484;10.024;2022-12-10T13:58:14;94602.22;;;0.24;nan
8501;BME280;4288;48.484;10.024;2022-12-10T14:00:52;94604.19;;;0.27;nan
8501;BME280;4288;48.484;10.024;2022-12-10T14:04:01;94610.78;;;0.21;nan
8501;BME280;4288;48.484;10.024;2022-12-10T14:06:34;94608.66;;;0.11;nan
8501;BME280;4288;48.484;10.024;2022-12-10T14:09:08;94612.34;;;0.10;nan